createdAt,value
2019-04-26T00:00:44.157Z,13.97
2019-04-26T00:03:16.239Z,15.60
2019-04-26T00:05:45.771Z,14.00
2019-04-26T00:08:15.837Z,14.37
2019-04-26T00:10:54.934Z,14.03
2019-04-26T00:16:39.250Z,14.93
2019-04-26T00:19:09.412Z,13.60
2019-04-26T00:21:39.239Z,13.67
2019-04-26T00:24:08.810Z,14.33
2019-04-26T00:26:38.312Z,14.13
2019-04-26T00:29:07.678Z,13.70
2019-04-26T00:31:37.069Z,13.83
2019-04-26T00:34:06.459Z,13.93
2019-04-26T00:36:35.838Z,13.43
2019-04-26T00:39:06.642Z,14.43
2019-04-26T00:41:37.191Z,14.43
2019-04-26T00:44:06.572Z,14.13
2019-04-26T00:46:38.055Z,13.87
2019-04-26T00:49:10.654Z,13.53
2019-04-26T00:51:41.227Z,13.83
2019-04-26T00:54:11.931Z,14.20
2019-04-26T00:56:41.382Z,13.97
2019-04-26T00:59:12.042Z,13.73
2019-04-26T01:01:45.819Z,13.47
2019-04-26T01:04:16.030Z,13.97
2019-04-26T01:06:48.111Z,13.63
2019-04-26T01:09:17.500Z,14.50
2019-04-26T01:11:46.888Z,13.83
2019-04-26T01:14:16.558Z,14.47
2019-04-26T01:16:47.783Z,13.57
2019-04-26T01:19:19.085Z,13.73
2019-04-26T01:21:52.859Z,13.50
2019-04-26T01:24:25.398Z,13.60
2019-04-26T01:26:56.811Z,13.87
2019-04-26T01:29:28.011Z,12.77
2019-04-26T01:32:04.456Z,14.27
2019-04-26T01:37:22.530Z,13.80
2019-04-26T01:39:57.471Z,13.93
2019-04-26T01:42:42.464Z,14.30
2019-04-26T01:45:20.220Z,13.23
2019-04-26T01:47:52.627Z,13.30
2019-04-26T01:50:25.255Z,13.23
2019-04-26T01:52:55.885Z,13.10
2019-04-26T01:55:29.185Z,14.30
2019-04-26T01:58:00.694Z,13.07
2019-04-26T02:00:49.292Z,13.80
2019-04-26T02:03:25.649Z,13.27
2019-04-26T02:05:55.500Z,13.43
2019-04-26T02:08:26.172Z,14.03
2019-04-26T02:10:55.872Z,13.67
2019-04-26T02:13:25.550Z,13.73
2019-04-26T02:15:55.108Z,13.80
2019-04-26T02:18:25.504Z,13.53
2019-04-26T02:21:26.518Z,14.23
2019-04-26T02:24:15.406Z,13.10
2019-04-26T02:26:47.685Z,14.27
2019-04-26T02:29:22.748Z,13.77
2019-04-26T02:31:54.668Z,14.07
2019-04-26T02:34:25.887Z,15.13
2019-04-26T02:37:00.554Z,13.57
2019-04-26T02:39:35.929Z,14.63
2019-04-26T02:42:08.846Z,13.07
2019-04-26T02:44:47.933Z,14.90
2019-04-26T02:48:01.726Z,13.73
2019-04-26T02:50:45.460Z,14.37
2019-04-26T02:53:31.649Z,15.20
2019-04-26T02:56:37.734Z,14.27
2019-04-26T02:59:43.333Z,15.37
2019-04-26T03:02:25.514Z,14.07
2019-04-26T03:05:02.373Z,14.70
2019-04-26T03:08:02.658Z,15.90
2019-04-26T03:10:40.266Z,15.93
2019-04-26T03:13:19.012Z,15.63
2019-04-26T03:16:02.464Z,16.17
2019-04-26T03:18:48.812Z,15.90
2019-04-26T03:21:26.314Z,16.13
2019-04-26T03:24:07.385Z,16.53
2019-04-26T03:27:08.567Z,16.37
2019-04-26T03:30:18.939Z,16.77
2019-04-26T03:32:55.237Z,16.67
2019-04-26T03:35:48.521Z,17.30
2019-04-26T03:38:21.266Z,16.87
2019-04-26T03:41:12.143Z,18.13
2019-04-26T03:44:06.670Z,21.50
2019-04-26T03:46:49.936Z,16.87
2019-04-26T03:49:45.667Z,17.60
2019-04-26T03:52:43.539Z,17.40
2019-04-26T03:56:06.417Z,17.37
2019-04-26T03:59:02.611Z,17.37
2019-04-26T04:01:39.566Z,17.57
2019-04-26T04:04:28.939Z,18.27
2019-04-26T04:07:04.557Z,17.80
2019-04-26T04:09:38.066Z,17.90
2019-04-26T04:12:23.800Z,16.50
2019-04-26T04:15:06.789Z,16.63
2019-04-26T04:17:50.402Z,18.30
2019-04-26T04:21:22.583Z,17.10
2019-04-26T04:24:08.086Z,17.60
2019-04-26T04:27:30.806Z,17.57
2019-04-26T04:30:33.013Z,17.73
2019-04-26T04:33:15.290Z,18.17
2019-04-26T04:35:52.996Z,18.87
2019-04-26T04:38:42.170Z,17.10
2019-04-26T04:41:33.717Z,17.37
2019-04-26T04:45:01.883Z,18.63
2019-04-26T04:47:41.232Z,18.07
2019-04-26T04:50:22.510Z,17.90
2019-04-26T04:53:25.897Z,16.57
2019-04-26T04:56:35.003Z,16.57
2019-04-26T04:59:15.271Z,15.50
2019-04-26T05:02:23.406Z,17.07
2019-04-26T05:05:34.538Z,16.50
2019-04-26T05:08:18.406Z,16.47
2019-04-26T05:10:56.631Z,15.53
2019-04-26T05:13:40.701Z,15.23
2019-04-26T05:16:52.587Z,15.20
2019-04-26T05:19:44.214Z,14.67
2019-04-26T05:22:55.703Z,15.10
2019-04-26T05:26:41.868Z,18.40
2019-04-26T05:30:11.411Z,16.20
2019-04-26T05:33:16.680Z,15.40
2019-04-26T05:36:15.152Z,16.67
2019-04-26T05:38:53.677Z,15.23
2019-04-26T05:42:00.897Z,16.57
2019-04-26T05:45:19.899Z,15.87
2019-04-26T05:48:08.355Z,16.50
2019-04-26T05:51:15.415Z,14.70
2019-04-26T05:54:33.703Z,15.50
2019-04-26T05:57:14.528Z,16.17
2019-04-26T06:00:38.183Z,14.67
2019-04-26T06:03:42.719Z,14.43
2019-04-26T06:06:31.745Z,15.67
2019-04-26T06:10:03.602Z,15.10
2019-04-26T06:13:35.230Z,17.43
2019-04-26T06:16:30.902Z,15.27
2019-04-26T06:19:17.688Z,15.13
2019-04-26T06:22:07.309Z,13.77
2019-04-26T06:25:21.551Z,13.63
2019-04-26T06:28:31.310Z,15.23
2019-04-26T06:31:48.700Z,14.80
2019-04-26T06:34:30.537Z,15.43
2019-04-26T06:37:25.242Z,14.83
2019-04-26T06:40:09.893Z,15.83
2019-04-26T06:43:34.892Z,14.13
2019-04-26T06:47:06.598Z,14.90
2019-04-26T06:50:29.765Z,15.17
2019-04-26T06:53:49.024Z,15.93
2019-04-26T06:56:38.118Z,14.80
2019-04-26T06:59:22.574Z,15.20
2019-04-26T07:02:06.132Z,15.67
2019-04-26T07:05:15.190Z,15.90
2019-04-26T07:08:28.399Z,16.77
2019-04-26T07:11:39.622Z,16.50
2019-04-26T07:15:03.912Z,18.53
2019-04-26T07:18:06.389Z,15.47
2019-04-26T07:20:51.367Z,17.20
2019-04-26T07:23:51.334Z,15.93
2019-04-26T07:27:13.124Z,15.33
2019-04-26T07:30:23.009Z,15.67
2019-04-26T07:33:52.005Z,14.97
2019-04-26T07:37:06.991Z,15.20
2019-04-26T07:40:27.743Z,15.33
2019-04-26T07:43:51.912Z,13.37
2019-04-26T07:46:48.237Z,12.40
2019-04-26T07:49:53.283Z,14.70
2019-04-26T07:53:09.271Z,15.23
2019-04-26T07:55:58.119Z,14.87
2019-04-26T07:59:07.229Z,14.47
2019-04-26T08:02:18.745Z,13.93
2019-04-26T08:04:57.817Z,14.77
2019-04-26T08:07:30.773Z,13.60
2019-04-26T08:10:16.124Z,15.03
2019-04-26T08:12:54.004Z,15.37
2019-04-26T08:15:44.917Z,13.20
2019-04-26T08:18:29.295Z,13.73
2019-04-26T08:21:27.019Z,14.03
2019-04-26T08:24:07.916Z,14.17
2019-04-26T08:26:40.414Z,13.87
2019-04-26T08:29:12.715Z,13.73
2019-04-26T08:31:44.665Z,13.00
2019-04-26T08:34:21.148Z,12.37
2019-04-26T08:37:01.786Z,11.73
2019-04-26T08:39:44.948Z,13.07
2019-04-26T08:42:11.854Z,12.33
2019-04-26T08:44:53.020Z,12.57
2019-04-26T08:47:38.218Z,11.90
2019-04-26T08:50:20.371Z,11.87
2019-04-26T08:52:57.817Z,11.67
2019-04-26T08:55:30.420Z,12.03
2019-04-26T08:58:02.722Z,11.83
2019-04-26T09:00:57.133Z,12.43
2019-04-26T09:03:49.018Z,12.07
2019-04-26T09:06:39.566Z,11.77
2019-04-26T09:09:18.217Z,12.67
2019-04-26T09:11:59.504Z,10.97
2019-04-26T09:14:24.128Z,10.50
2019-04-26T09:16:53.529Z,11.90
2019-04-26T09:19:26.274Z,10.77
2019-04-26T09:22:13.094Z,11.60
2019-04-26T09:25:08.998Z,11.28
2019-04-26T09:27:58.824Z,10.50
2019-04-26T09:30:52.317Z,10.23
2019-04-26T09:33:27.605Z,11.37
2019-04-26T09:35:57.077Z,11.30
2019-04-26T09:38:26.942Z,10.35
2019-04-26T09:40:57.294Z,9.68
2019-04-26T09:43:39.902Z,9.60
2019-04-26T09:46:22.583Z,10.08
2019-04-26T09:49:14.115Z,9.15
2019-04-26T09:51:43.559Z,9.65
2019-04-26T09:54:15.330Z,10.30
2019-04-26T09:56:44.151Z,10.20
2019-04-26T09:59:13.942Z,9.88
2019-04-26T10:01:43.495Z,9.80
2019-04-26T10:04:12.867Z,9.28
2019-04-26T10:06:42.338Z,9.68
2019-04-26T10:09:17.325Z,10.30
2019-04-26T10:11:51.530Z,9.28
2019-04-26T10:14:39.344Z,14.45
2019-04-26T10:17:27.989Z,8.98
2019-04-26T10:19:58.145Z,8.78
2019-04-26T10:22:32.103Z,9.70
2019-04-26T10:25:02.468Z,8.53
2019-04-26T10:27:36.083Z,9.38
2019-04-26T10:30:09.048Z,8.50
2019-04-26T10:32:35.481Z,8.68
2019-04-26T10:35:04.819Z,8.98
2019-04-26T10:37:39.693Z,9.48
2019-04-26T10:40:06.259Z,9.00
2019-04-26T10:42:35.618Z,9.80
2019-04-26T10:45:10.454Z,8.73
2019-04-26T10:47:38.605Z,9.13
2019-04-26T10:50:11.089Z,9.93
2019-04-26T10:53:02.046Z,9.18
2019-04-26T10:56:05.418Z,9.43
2019-04-26T10:58:39.295Z,9.60
2019-04-26T11:01:12.664Z,8.73
2019-04-26T11:03:42.100Z,8.23
2019-04-26T11:06:11.595Z,8.75
2019-04-26T11:08:40.995Z,8.65
2019-04-26T11:11:10.732Z,9.13
2019-04-26T11:13:40.118Z,8.60
2019-04-26T11:16:09.585Z,10.10
2019-04-26T11:18:38.991Z,9.50
2019-04-26T11:21:08.359Z,9.80
2019-04-26T11:23:41.185Z,9.15
2019-04-26T11:26:09.904Z,8.93
2019-04-26T11:28:41.938Z,9.35
2019-04-26T11:31:10.814Z,8.20
2019-04-26T11:33:45.143Z,8.68
2019-04-26T11:36:11.286Z,8.55
2019-04-26T11:38:40.661Z,8.30
2019-04-26T11:41:10.089Z,9.08
2019-04-26T11:43:39.437Z,7.97
2019-04-26T11:46:08.804Z,7.58
2019-04-26T11:48:38.195Z,7.83
2019-04-26T11:51:07.559Z,8.75
2019-04-26T11:53:40.469Z,8.43
2019-04-26T11:56:08.041Z,8.43
2019-04-26T11:58:37.464Z,7.85
2019-04-26T12:01:08.446Z,8.05
2019-04-26T12:03:39.438Z,8.08
2019-04-26T12:06:17.944Z,8.03
2019-04-26T12:08:54.116Z,8.95
2019-04-26T12:11:31.580Z,7.40
2019-04-26T12:13:55.451Z,7.85
2019-04-26T12:16:25.730Z,8.55
2019-04-26T12:18:55.133Z,7.55
2019-04-26T12:21:24.555Z,7.97
2019-04-26T12:23:55.494Z,8.30
2019-04-26T12:26:25.056Z,17.82
2019-04-26T12:28:54.409Z,19.25
2019-04-26T12:31:23.767Z,10.35
2019-04-26T12:33:53.170Z,8.33
2019-04-26T12:36:22.672Z,7.97
2019-04-26T12:38:52.029Z,7.90
2019-04-26T12:41:39.196Z,7.90
2019-04-26T12:43:54.504Z,7.80
2019-04-26T12:46:32.012Z,8.05
2019-04-26T12:49:01.450Z,7.60
2019-04-26T12:51:30.862Z,8.43
2019-04-26T12:54:03.880Z,8.75
2019-04-26T12:56:32.744Z,8.75
2019-04-26T12:59:02.292Z,8.05
2019-04-26T13:01:31.688Z,7.80
2019-04-26T13:04:05.496Z,7.30
2019-04-26T13:06:37.613Z,8.75
2019-04-26T13:09:13.813Z,8.20
2019-04-26T13:12:09.805Z,7.42
2019-04-26T13:14:52.367Z,8.48
2019-04-26T13:17:24.634Z,7.50
2019-04-26T13:19:55.440Z,7.90
2019-04-26T13:22:24.963Z,7.35
2019-04-26T13:24:54.820Z,8.45
2019-04-26T13:27:24.215Z,7.12
2019-04-26T13:30:01.874Z,7.28
2019-04-26T13:32:24.806Z,7.67
2019-04-26T13:34:54.160Z,7.90
2019-04-26T13:37:23.578Z,7.08
2019-04-26T13:39:55.328Z,7.60
2019-04-26T13:42:24.017Z,7.05
2019-04-26T13:45:05.855Z,7.35
2019-04-26T13:47:49.057Z,7.53
2019-04-26T13:50:37.707Z,7.22
2019-04-26T13:53:08.420Z,7.67
2019-04-26T13:55:38.809Z,7.12
2019-04-26T13:58:08.227Z,8.15
2019-04-26T14:00:39.768Z,7.85
2019-04-26T14:03:08.997Z,8.80
2019-04-26T14:05:38.444Z,9.68
2019-04-26T14:08:07.877Z,7.42
2019-04-26T14:10:37.231Z,8.55
2019-04-26T14:13:06.594Z,7.40
2019-04-26T14:15:39.382Z,7.15
2019-04-26T14:18:07.173Z,7.92
2019-04-26T14:20:36.617Z,7.30
2019-04-26T14:23:28.120Z,7.10
2019-04-26T14:26:16.396Z,7.55
2019-04-26T14:28:45.785Z,8.28
2019-04-26T14:31:16.445Z,8.33
2019-04-26T14:33:46.273Z,7.05
2019-04-26T14:36:17.905Z,7.42
2019-04-26T14:38:46.761Z,7.20
2019-04-26T14:41:21.994Z,7.58
2019-04-26T14:43:47.403Z,7.03
2019-04-26T14:46:16.813Z,6.97
2019-04-26T14:49:00.569Z,7.62
2019-04-26T14:51:18.676Z,7.33
2019-04-26T14:53:48.323Z,6.97
2019-04-26T14:56:17.653Z,6.47
2019-04-26T14:58:47.032Z,7.10
2019-04-26T15:01:32.257Z,8.18
2019-04-26T15:04:18.181Z,7.10
2019-04-26T15:06:51.920Z,6.42
2019-04-26T15:09:20.184Z,7.20
2019-04-26T15:11:54.133Z,7.62
2019-04-26T15:14:22.702Z,6.55
2019-04-26T15:16:52.169Z,7.25
2019-04-26T15:19:22.551Z,6.70
2019-04-26T15:21:52.417Z,6.42
2019-04-26T15:24:22.629Z,7.15
2019-04-26T15:26:52.078Z,7.03
2019-04-26T15:29:26.901Z,7.70
2019-04-26T15:31:53.641Z,8.13
2019-04-26T15:34:26.508Z,7.47
2019-04-26T15:36:54.827Z,6.70
2019-04-26T15:39:44.525Z,7.55
2019-04-26T15:42:31.895Z,7.17
2019-04-26T15:45:14.014Z,7.55
2019-04-26T15:48:02.286Z,7.55
2019-04-26T15:50:52.016Z,7.33
2019-04-26T15:53:22.126Z,8.43
2019-04-26T15:55:52.494Z,8.03
2019-04-26T15:58:22.277Z,8.23
2019-04-26T16:00:52.848Z,8.18
2019-04-26T16:03:22.722Z,7.85
2019-04-26T16:05:52.173Z,8.10
2019-04-26T16:08:22.885Z,8.15
2019-04-26T16:10:53.171Z,9.00
2019-04-26T16:13:24.159Z,8.90
2019-04-26T16:15:53.628Z,8.83
2019-04-26T16:18:23.114Z,7.80
2019-04-26T16:20:53.389Z,8.98
2019-04-26T16:23:24.273Z,8.60
2019-04-26T16:25:53.822Z,8.63
2019-04-26T16:28:51.528Z,7.40
2019-04-26T16:31:42.194Z,8.93
2019-04-26T16:34:14.256Z,8.28
2019-04-26T16:36:45.316Z,8.90
2019-04-26T16:39:15.567Z,11.12
2019-04-26T16:41:45.069Z,11.30
2019-04-26T16:44:14.456Z,11.65
2019-04-26T16:46:44.070Z,10.08
2019-04-26T16:49:14.640Z,9.60
2019-04-26T16:51:44.156Z,10.38
2019-04-26T16:54:21.326Z,10.93
2019-04-26T16:56:44.716Z,10.10
2019-04-26T16:59:28.743Z,9.65
2019-04-26T17:01:47.414Z,8.55
2019-04-26T17:04:20.007Z,9.65
2019-04-26T17:06:47.523Z,8.28
2019-04-26T17:09:16.938Z,7.80
2019-04-26T17:11:46.351Z,8.15
2019-04-26T17:14:15.730Z,8.08
2019-04-26T17:16:45.125Z,8.68
2019-04-26T17:19:19.923Z,8.20
2019-04-26T17:22:06.859Z,7.80
2019-04-26T17:24:58.179Z,8.60
2019-04-26T17:27:27.581Z,7.97
2019-04-26T17:29:56.938Z,7.87
2019-04-26T17:32:26.309Z,8.47
2019-04-26T17:34:59.612Z,7.22
2019-04-26T17:37:27.943Z,8.00
2019-04-26T17:39:57.627Z,8.08
2019-04-26T17:42:29.805Z,7.50
2019-04-26T17:45:04.003Z,7.20
2019-04-26T17:47:34.692Z,8.17
2019-04-26T17:50:04.561Z,7.57
2019-04-26T17:52:36.063Z,6.90
2019-04-26T17:55:03.083Z,7.00
2019-04-26T17:57:36.730Z,7.43
2019-04-26T18:00:07.438Z,10.20
2019-04-26T18:02:42.242Z,6.93
2019-04-26T18:05:10.847Z,7.63
2019-04-26T18:07:44.303Z,7.30
2019-04-26T18:10:11.375Z,8.30
2019-04-26T18:12:41.318Z,7.57
2019-04-26T18:15:14.360Z,7.37
2019-04-26T18:18:14.409Z,8.20
2019-04-26T18:21:00.557Z,8.30
2019-04-26T18:23:30.517Z,8.60
2019-04-26T18:25:59.993Z,7.77
2019-04-26T18:28:29.349Z,7.37
2019-04-26T18:30:59.236Z,8.47
2019-04-26T18:33:30.054Z,7.73
2019-04-26T18:35:59.438Z,7.20
2019-04-26T18:38:31.938Z,7.57
2019-04-26T18:41:01.656Z,8.10
2019-04-26T18:43:32.805Z,8.00
2019-04-26T18:46:17.050Z,8.30
2019-04-26T18:48:46.903Z,7.27
2019-04-26T18:51:16.307Z,7.57
2019-04-26T18:54:17.812Z,7.43
2019-04-26T18:56:50.398Z,7.67
2019-04-26T18:59:23.371Z,7.43
2019-04-26T19:01:53.810Z,8.13
2019-04-26T19:04:23.770Z,7.80
2019-04-26T19:06:53.201Z,7.43
2019-04-26T19:09:27.364Z,7.77
2019-04-26T19:11:57.509Z,7.77
2019-04-26T19:15:03.297Z,8.07
2019-04-26T19:17:54.502Z,8.30
2019-04-26T19:20:39.192Z,8.37
2019-04-26T19:23:09.830Z,8.63
2019-04-26T19:25:41.203Z,9.20
2019-04-26T19:28:11.980Z,7.73
2019-04-26T19:30:47.307Z,8.03
2019-04-26T19:33:16.743Z,7.87
2019-04-26T19:35:47.209Z,8.47
2019-04-26T19:38:15.007Z,7.90
2019-04-26T19:40:47.806Z,7.43
2019-04-26T19:43:28.098Z,8.07
2019-04-26T19:46:01.455Z,8.57
2019-04-26T19:48:55.331Z,8.10
2019-04-26T19:51:41.478Z,8.43
2019-04-26T19:54:27.672Z,9.00
2019-04-26T19:57:02.442Z,8.10
2019-04-26T19:59:33.177Z,9.43
2019-04-26T20:02:01.558Z,7.83
2019-04-26T20:04:34.050Z,7.93
2019-04-26T20:07:02.212Z,8.50
2019-04-26T20:09:31.945Z,8.00
2019-04-26T20:12:02.563Z,7.47
2019-04-26T20:14:44.754Z,7.87
2019-04-26T20:17:03.282Z,8.47
2019-04-26T20:19:37.273Z,8.27
2019-04-26T20:22:04.004Z,8.13
2019-04-26T20:24:33.347Z,8.03
2019-04-26T20:27:03.484Z,7.87
2019-04-26T20:29:33.093Z,8.10
2019-04-26T20:32:32.015Z,8.23
2019-04-26T20:35:28.393Z,7.77
2019-04-26T20:38:01.077Z,9.13
2019-04-26T20:40:29.229Z,7.50
2019-04-26T20:43:03.398Z,8.30
2019-04-26T20:45:41.113Z,8.50
2019-04-26T20:48:02.329Z,9.03
2019-04-26T20:50:35.205Z,8.70
2019-04-26T20:53:03.395Z,8.53
2019-04-26T20:55:34.577Z,8.30
2019-04-26T20:58:08.306Z,7.63
2019-04-26T21:00:36.528Z,8.27
2019-04-26T21:03:20.160Z,8.53
2019-04-26T21:05:46.332Z,8.30
2019-04-26T21:08:08.954Z,8.00
2019-04-26T21:10:38.410Z,7.80
2019-04-26T21:13:12.226Z,7.87
2019-04-26T21:15:53.513Z,7.73
2019-04-26T21:18:12.896Z,8.37
2019-04-26T21:20:42.620Z,7.93
2019-04-26T21:23:13.251Z,7.77
2019-04-26T21:25:55.490Z,8.23
2019-04-26T21:28:42.972Z,8.60
2019-04-26T21:31:32.187Z,8.07
2019-04-26T21:34:10.330Z,8.80
2019-04-26T21:36:55.205Z,7.83
2019-04-26T21:39:50.490Z,8.83
2019-04-26T21:42:25.637Z,8.40
2019-04-26T21:44:55.032Z,7.83
2019-04-26T21:47:27.483Z,8.00
2019-04-26T21:50:01.257Z,7.57
2019-04-26T21:52:30.685Z,8.70
2019-04-26T21:55:00.025Z,7.73
2019-04-26T21:57:31.742Z,8.30
2019-04-26T22:00:00.520Z,8.43
2019-04-26T22:02:36.071Z,7.53
2019-04-26T22:05:03.175Z,8.03
2019-04-26T22:07:32.838Z,8.47
2019-04-26T22:10:10.816Z,8.63
2019-04-26T22:12:40.229Z,9.07
2019-04-26T22:15:37.528Z,8.10
2019-04-26T22:18:16.477Z,8.23
2019-04-26T22:21:09.887Z,7.63
2019-04-26T22:23:57.254Z,8.50
2019-04-26T22:26:26.719Z,7.97
2019-04-26T22:28:56.083Z,8.07
2019-04-26T22:31:25.442Z,8.23
2019-04-26T22:33:56.114Z,7.63
2019-04-26T22:36:27.417Z,8.13
2019-04-26T22:39:01.684Z,8.00
2019-04-26T22:41:28.494Z,8.17
2019-04-26T22:44:06.726Z,8.27
2019-04-26T22:46:49.467Z,9.10
2019-04-26T22:49:17.797Z,8.77
2019-04-26T22:51:47.172Z,8.23
2019-04-26T22:54:16.596Z,9.57
2019-04-26T22:56:46.134Z,8.33
2019-04-26T22:59:15.468Z,8.40
2019-04-26T23:01:48.784Z,8.43
2019-04-26T23:04:24.960Z,8.13
2019-04-26T23:06:48.182Z,8.97
2019-04-26T23:09:20.583Z,9.07
2019-04-26T23:11:54.043Z,9.00
2019-04-26T23:14:48.286Z,8.30
2019-04-26T23:17:35.250Z,8.03
2019-04-26T23:20:15.248Z,8.33
2019-04-26T23:22:45.001Z,8.70
2019-04-26T23:25:14.590Z,7.77
2019-04-26T23:27:43.993Z,8.23
2019-04-26T23:30:14.548Z,8.40
2019-04-26T23:32:43.901Z,7.60
2019-04-26T23:35:13.795Z,7.73
2019-04-26T23:37:43.200Z,8.00
2019-04-26T23:40:12.591Z,8.23
2019-04-26T23:42:43.538Z,9.43
2019-04-26T23:45:14.405Z,8.30
2019-04-26T23:47:43.901Z,7.63
2019-04-26T23:50:14.100Z,8.20
2019-04-26T23:52:43.758Z,8.27
2019-04-26T23:55:16.443Z,9.57
2019-04-26T23:57:45.936Z,10.13
